createdAt,value
2018-08-28T00:01:14.928Z,82.93
2018-08-28T00:03:43.273Z,83.18
2018-08-28T00:06:12.076Z,82.78
2018-08-28T00:08:40.408Z,82.35
2018-08-28T00:11:08.751Z,82.88
2018-08-28T00:13:37.084Z,82.77
2018-08-28T00:16:05.476Z,83.02
2018-08-28T00:18:34.246Z,83.00
2018-08-28T00:21:02.640Z,83.34
2018-08-28T00:23:31.024Z,82.95
2018-08-28T00:25:59.369Z,83.46
2018-08-28T00:28:27.700Z,82.82
2018-08-28T00:30:56.088Z,83.67
2018-08-28T00:33:24.420Z,83.08
2018-08-28T00:35:53.204Z,83.02
2018-08-28T00:38:21.548Z,83.46
2018-08-28T00:40:49.920Z,83.36
2018-08-28T00:43:18.534Z,83.43
2018-08-28T00:45:46.872Z,83.41
2018-08-28T00:48:15.485Z,83.31
2018-08-28T00:50:44.043Z,84.16
2018-08-28T00:53:13.188Z,84.63
2018-08-28T00:55:41.537Z,83.78
2018-08-28T00:58:09.884Z,83.89
2018-08-28T01:00:38.252Z,83.41
2018-08-28T01:03:06.649Z,82.80
2018-08-28T01:05:34.976Z,82.46
2018-08-28T01:08:03.324Z,82.71
2018-08-28T01:10:31.748Z,82.41
2018-08-28T01:13:00.104Z,81.97
2018-08-28T01:15:28.458Z,82.70
2018-08-28T01:17:56.826Z,83.35
2018-08-28T01:20:25.181Z,83.29
2018-08-28T01:22:53.540Z,83.27
2018-08-28T01:25:22.104Z,82.77
2018-08-28T01:27:50.472Z,81.33
2018-08-28T01:30:22.936Z,82.20
2018-08-28T01:32:51.345Z,82.86
2018-08-28T01:35:19.808Z,83.49
2018-08-28T01:37:48.152Z,84.23
2018-08-28T01:40:16.784Z,83.57
2018-08-28T01:42:45.158Z,84.13
2018-08-28T01:45:13.492Z,84.21
2018-08-28T01:47:42.195Z,84.84
2018-08-28T01:50:10.516Z,84.04
2018-08-28T01:52:38.911Z,84.58
2018-08-28T01:55:07.285Z,84.52
2018-08-28T01:57:35.649Z,84.01
2018-08-28T02:00:04.208Z,83.87
2018-08-28T02:02:32.556Z,84.19
2018-08-28T02:05:00.912Z,84.17
2018-08-28T02:07:29.666Z,82.53
2018-08-28T02:09:58.028Z,81.54
2018-08-28T02:12:26.809Z,81.48
2018-08-28T02:14:55.128Z,82.15
2018-08-28T02:17:23.532Z,82.81
2018-08-28T02:19:51.876Z,83.03
2018-08-28T02:22:20.212Z,83.20
2018-08-28T02:24:48.551Z,82.62
2018-08-28T02:27:17.260Z,82.51
2018-08-28T02:29:45.592Z,82.51
2018-08-28T02:32:13.939Z,83.17
2018-08-28T02:34:42.284Z,82.87
2018-08-28T02:37:10.968Z,83.00
2018-08-28T02:39:39.313Z,83.42
2018-08-28T02:42:07.652Z,84.84
2018-08-28T02:44:36.004Z,84.84
2018-08-28T02:47:04.415Z,84.99
2018-08-28T02:49:32.740Z,84.58
2018-08-28T02:52:01.100Z,85.32
2018-08-28T02:54:29.470Z,85.10
2018-08-28T02:56:57.845Z,85.91
2018-08-28T02:59:26.596Z,85.19
2018-08-28T03:01:54.924Z,85.53
2018-08-28T03:04:23.284Z,85.87
2018-08-28T03:06:51.608Z,85.62
2018-08-28T03:09:19.956Z,85.42
2018-08-28T03:11:48.293Z,85.43
2018-08-28T03:14:16.705Z,85.24
2018-08-28T03:16:45.053Z,85.63
2018-08-28T03:19:13.408Z,85.65
2018-08-28T03:21:41.792Z,85.88
2018-08-28T03:24:10.157Z,85.68
2018-08-28T03:26:38.941Z,85.71
2018-08-28T03:29:07.779Z,85.22
2018-08-28T03:31:36.004Z,85.01
2018-08-28T03:34:04.756Z,85.23
2018-08-28T03:36:33.101Z,84.41
2018-08-28T03:39:01.484Z,85.10
2018-08-28T03:41:30.195Z,84.76
2018-08-28T03:43:58.612Z,85.18
2018-08-28T03:46:26.935Z,85.71
2018-08-28T03:48:55.320Z,85.67
2018-08-28T03:51:23.707Z,85.69
2018-08-28T03:53:52.309Z,85.87
2018-08-28T03:56:20.627Z,85.60
2018-08-28T03:58:48.972Z,86.26
2018-08-28T04:01:17.301Z,86.22
2018-08-28T04:03:45.701Z,85.99
2018-08-28T04:06:14.132Z,85.86
2018-08-28T04:08:42.499Z,85.67
2018-08-28T04:11:10.836Z,86.12
2018-08-28T04:13:39.247Z,85.58
2018-08-28T04:16:07.564Z,85.14
2018-08-28T04:18:36.908Z,85.23
2018-08-28T04:21:05.256Z,84.97
2018-08-28T04:23:33.604Z,84.06
2018-08-28T04:26:01.941Z,83.62
2018-08-28T04:28:30.309Z,83.34
2018-08-28T04:30:58.670Z,83.07
2018-08-28T04:33:27.005Z,83.49
2018-08-28T04:35:55.345Z,82.67
2018-08-28T04:38:23.689Z,82.86
2018-08-28T04:40:52.063Z,83.23
2018-08-28T04:43:20.393Z,83.83
2018-08-28T04:45:48.749Z,84.68
2018-08-28T04:48:17.137Z,85.85
2018-08-28T04:50:45.608Z,85.49
2018-08-28T04:53:13.948Z,84.90
2018-08-28T04:55:42.584Z,84.51
2018-08-28T04:58:10.940Z,82.44
2018-08-28T05:00:39.362Z,82.90
2018-08-28T05:03:07.710Z,81.99
2018-08-28T05:05:36.060Z,82.05
2018-08-28T05:08:04.396Z,82.31
2018-08-28T05:10:32.758Z,82.27
2018-08-28T05:13:01.112Z,82.78
2018-08-28T05:15:29.476Z,82.92
2018-08-28T05:17:57.807Z,82.41
2018-08-28T05:20:26.472Z,81.45
2018-08-28T05:22:54.815Z,80.41
2018-08-28T05:25:23.164Z,80.13
2018-08-28T05:27:51.957Z,80.52
2018-08-28T05:30:20.371Z,80.77
2018-08-28T05:32:48.692Z,79.36
2018-08-28T05:35:17.064Z,78.69
2018-08-28T05:37:45.396Z,78.30
2018-08-28T05:40:14.218Z,76.73
2018-08-28T05:42:42.552Z,76.55
2018-08-28T05:45:10.925Z,76.14
2018-08-28T05:47:39.244Z,75.73
2018-08-28T05:50:07.635Z,75.98
2018-08-28T05:52:35.985Z,76.33
2018-08-28T05:55:04.396Z,76.18
2018-08-28T05:57:33.096Z,76.06
2018-08-28T06:00:01.449Z,75.00
2018-08-28T06:02:29.797Z,75.11
2018-08-28T06:04:58.166Z,74.62
2018-08-28T06:07:26.539Z,75.17
2018-08-28T06:09:54.883Z,74.90
2018-08-28T06:12:23.249Z,74.03
2018-08-28T06:14:51.983Z,73.48
2018-08-28T06:17:20.652Z,72.21
2018-08-28T06:19:48.992Z,70.53
2018-08-28T06:22:17.323Z,68.52
2018-08-28T06:24:46.040Z,66.52
2018-08-28T06:27:14.377Z,65.31
2018-08-28T06:29:42.732Z,63.27
2018-08-28T06:32:11.064Z,58.81
2018-08-28T06:34:39.420Z,55.81
2018-08-28T06:37:07.786Z,54.62
2018-08-28T06:39:37.057Z,52.61
2018-08-28T06:42:05.412Z,49.80
2018-08-28T06:44:33.766Z,49.54
2018-08-28T06:47:02.312Z,52.16
2018-08-28T06:49:30.668Z,50.43
2018-08-28T06:51:59.028Z,51.66
2018-08-28T06:54:27.404Z,54.41
2018-08-28T06:56:56.293Z,50.03
2018-08-28T06:59:24.512Z,45.10
2018-08-28T07:01:53.078Z,47.72
2018-08-28T07:04:22.632Z,43.61
2018-08-28T07:06:50.989Z,44.77
2018-08-28T07:09:19.332Z,39.88
2018-08-28T07:11:47.716Z,37.43
2018-08-28T07:14:16.057Z,40.18
2018-08-28T07:16:44.733Z,43.40
2018-08-28T07:19:13.080Z,41.77
2018-08-28T07:21:41.476Z,40.83
2018-08-28T07:24:10.933Z,39.34
2018-08-28T07:26:39.285Z,37.44
2018-08-28T07:29:07.835Z,37.42
2018-08-28T07:31:36.226Z,34.19
2018-08-28T07:34:04.594Z,32.34
2018-08-28T07:36:32.964Z,32.76
2018-08-28T07:39:01.305Z,32.15
2018-08-28T07:41:30.428Z,30.18
2018-08-28T07:43:58.769Z,31.22
2018-08-28T07:46:27.503Z,33.84
2018-08-28T07:48:55.849Z,33.30
2018-08-28T07:51:24.245Z,31.09
2018-08-28T07:53:52.714Z,30.23
2018-08-28T07:56:21.065Z,31.04
2018-08-28T07:58:49.544Z,33.68
2018-08-28T08:01:17.942Z,31.62
2018-08-28T08:03:46.285Z,31.14
2018-08-28T08:06:14.642Z,35.42
2018-08-28T08:08:42.979Z,35.19
2018-08-28T08:11:11.821Z,40.43
2018-08-28T08:13:40.157Z,36.71
2018-08-28T08:16:08.579Z,37.48
2018-08-28T08:18:36.884Z,44.39
2018-08-28T08:21:06.153Z,42.54
2018-08-28T08:23:34.500Z,35.89
2018-08-28T08:26:03.079Z,36.44
2018-08-28T08:28:31.440Z,40.98
2018-08-28T08:31:00.084Z,44.61
2018-08-28T08:33:28.428Z,46.46
2018-08-28T08:35:56.788Z,44.43
2018-08-28T08:38:26.068Z,45.55
2018-08-28T08:40:54.420Z,43.89
2018-08-28T08:43:22.777Z,44.88
2018-08-28T08:45:51.124Z,46.57
2018-08-28T08:48:19.489Z,46.59
2018-08-28T08:50:47.826Z,46.64
2018-08-28T08:53:16.188Z,45.44
2018-08-28T08:55:45.431Z,46.70
2018-08-28T08:58:13.792Z,45.11
2018-08-28T09:00:42.128Z,47.94
2018-08-28T09:03:10.916Z,47.95
2018-08-28T09:05:39.278Z,46.78
2018-08-28T09:08:07.930Z,45.08
2018-08-28T09:10:36.477Z,44.39
2018-08-28T09:13:04.868Z,43.71
2018-08-28T09:15:33.939Z,42.59
2018-08-28T09:18:02.299Z,41.86
2018-08-28T09:20:30.652Z,37.89
2018-08-28T09:22:59.009Z,30.75
2018-08-28T09:25:27.812Z,28.71
2018-08-28T09:27:56.157Z,26.03
2018-08-28T09:30:24.744Z,22.78
2018-08-28T09:32:53.092Z,23.90
2018-08-28T09:35:21.465Z,24.64
2018-08-28T09:37:49.820Z,30.14
2018-08-28T09:40:18.164Z,30.92
2018-08-28T09:42:46.537Z,34.35
2018-08-28T09:45:14.888Z,36.90
2018-08-28T09:47:43.241Z,38.59
2018-08-28T09:50:11.588Z,38.56
2018-08-28T09:52:39.933Z,38.57
2018-08-28T09:55:08.285Z,31.48
2018-08-28T09:57:36.850Z,27.99
2018-08-28T10:00:05.907Z,25.30
2018-08-28T10:02:34.393Z,22.94
2018-08-28T10:05:02.985Z,25.55
2018-08-28T10:07:31.357Z,29.01
2018-08-28T10:09:59.699Z,26.18
2018-08-28T10:12:28.441Z,28.25
2018-08-28T10:14:56.772Z,28.23
2018-08-28T10:17:25.201Z,29.96
2018-08-28T10:19:53.488Z,31.19
2018-08-28T10:22:21.840Z,32.98
2018-08-28T10:24:51.148Z,33.29
2018-08-28T10:27:19.552Z,33.50
2018-08-28T10:29:47.905Z,34.73
2018-08-28T10:32:16.263Z,35.34
2018-08-28T10:34:44.597Z,36.57
2018-08-28T10:37:12.948Z,38.36
2018-08-28T10:39:41.290Z,37.18
2018-08-28T10:42:09.633Z,36.47
2018-08-28T10:44:38.592Z,32.69
2018-08-28T10:47:07.257Z,28.57
2018-08-28T10:49:35.604Z,22.36
2018-08-28T10:52:04.008Z,20.57
2018-08-28T10:54:32.531Z,20.06
2018-08-28T10:57:01.405Z,20.29
2018-08-28T10:59:29.756Z,20.96
2018-08-28T11:01:58.104Z,20.37
2018-08-28T11:04:26.809Z,22.15
2018-08-28T11:06:55.155Z,24.63
2018-08-28T11:09:23.512Z,26.27
2018-08-28T11:11:52.286Z,23.82
2018-08-28T11:14:21.044Z,21.84
2018-08-28T11:16:49.829Z,20.59
2018-08-28T11:19:18.208Z,21.55
2018-08-28T11:21:46.562Z,21.32
2018-08-28T11:24:14.924Z,20.69
2018-08-28T11:26:43.245Z,21.58
2018-08-28T11:29:11.892Z,22.33
2018-08-28T11:31:40.240Z,23.11
2018-08-28T11:34:08.609Z,23.07
2018-08-28T11:36:36.972Z,24.02
2018-08-28T11:39:06.057Z,26.01
2018-08-28T11:41:34.429Z,23.69
2018-08-28T11:44:03.089Z,21.33
2018-08-28T11:46:31.438Z,20.28
2018-08-28T11:48:59.815Z,19.79
2018-08-28T11:51:28.554Z,18.49
2018-08-28T11:53:56.904Z,20.51
2018-08-28T11:56:25.338Z,20.89
2018-08-28T11:58:54.101Z,22.27
2018-08-28T12:01:22.468Z,20.94
2018-08-28T12:03:50.844Z,20.98
2018-08-28T12:06:19.821Z,23.78
2018-08-28T12:08:48.168Z,22.08
2018-08-28T12:11:16.520Z,20.94
2018-08-28T12:13:44.892Z,21.14
2018-08-28T12:16:13.283Z,20.53
2018-08-28T12:18:41.638Z,22.79
2018-08-28T12:21:09.985Z,22.43
2018-08-28T12:23:38.768Z,21.76
2018-08-28T12:26:07.520Z,21.42
2018-08-28T12:28:35.872Z,19.38
2018-08-28T12:31:04.215Z,22.31
2018-08-28T12:33:32.717Z,22.10
2018-08-28T12:36:01.062Z,20.63
2018-08-28T12:38:29.420Z,21.32
2018-08-28T12:40:57.844Z,20.56
2018-08-28T12:43:26.424Z,20.46
2018-08-28T12:45:54.772Z,20.21
2018-08-28T12:48:23.124Z,20.73
2018-08-28T12:50:51.501Z,19.98
2018-08-28T12:53:19.934Z,20.67
2018-08-28T12:55:48.470Z,21.63
2018-08-28T12:58:17.076Z,22.42
2018-08-28T13:00:45.643Z,22.35
2018-08-28T13:03:14.592Z,22.82
2018-08-28T13:05:42.939Z,23.61
2018-08-28T13:08:11.292Z,26.75
2018-08-28T13:10:39.659Z,24.36
2018-08-28T13:13:08.004Z,21.66
2018-08-28T13:15:36.369Z,22.37
2018-08-28T13:18:05.120Z,20.46
2018-08-28T13:20:33.464Z,20.60
2018-08-28T13:23:01.824Z,20.07
2018-08-28T13:25:30.309Z,19.64
2018-08-28T13:27:58.548Z,19.40
2018-08-28T13:30:27.008Z,20.48
2018-08-28T13:32:55.340Z,20.75
2018-08-28T13:35:23.700Z,21.43
2018-08-28T13:37:52.649Z,22.47
2018-08-28T13:40:21.072Z,23.03
2018-08-28T13:42:49.433Z,26.65
2018-08-28T13:45:17.820Z,25.14
2018-08-28T13:47:46.157Z,27.45
2018-08-28T13:50:14.525Z,24.40
2018-08-28T13:52:42.856Z,22.35
2018-08-28T13:55:11.233Z,22.85
2018-08-28T13:57:39.760Z,24.27
2018-08-28T14:00:08.239Z,21.75
2018-08-28T14:02:36.499Z,22.29
2018-08-28T14:05:04.918Z,21.92
2018-08-28T14:07:33.257Z,21.53
2018-08-28T14:10:01.686Z,21.43
2018-08-28T14:12:30.039Z,20.98
2018-08-28T14:14:58.485Z,22.66
2018-08-28T14:17:26.876Z,22.36
2018-08-28T14:19:55.404Z,23.02
2018-08-28T14:22:23.760Z,23.72
2018-08-28T14:24:52.265Z,25.53
2018-08-28T14:27:20.648Z,23.35
2018-08-28T14:29:49.024Z,23.61
2018-08-28T14:32:17.614Z,22.34
2018-08-28T14:34:45.976Z,22.92
2018-08-28T14:37:14.332Z,23.80
2018-08-28T14:39:42.711Z,23.89
2018-08-28T14:42:11.697Z,25.60
2018-08-28T14:44:40.099Z,25.62
2018-08-28T14:47:08.465Z,24.98
2018-08-28T14:49:36.937Z,27.35
2018-08-28T14:52:05.260Z,27.87
2018-08-28T14:54:33.621Z,28.00
2018-08-28T14:57:02.076Z,27.69
2018-08-28T14:59:30.429Z,26.78
2018-08-28T15:01:58.808Z,25.69
2018-08-28T15:04:27.160Z,26.60
2018-08-28T15:06:55.563Z,24.25
2018-08-28T15:09:23.965Z,27.47
2018-08-28T15:11:52.326Z,27.31
2018-08-28T15:14:20.676Z,27.47
2018-08-28T15:16:54.841Z,27.59
2018-08-28T15:19:23.340Z,27.42
2018-08-28T15:21:51.692Z,29.33
2018-08-28T15:24:20.208Z,29.38
2018-08-28T15:26:49.216Z,28.94
2018-08-28T15:29:17.560Z,28.66
2018-08-28T15:31:45.915Z,28.13
2018-08-28T15:34:14.637Z,28.00
2018-08-28T15:36:43.031Z,27.61
2018-08-28T15:39:15.788Z,27.46
2018-08-28T15:41:50.616Z,29.23
2018-08-28T15:44:19.943Z,29.31
2018-08-28T15:46:48.291Z,29.58
2018-08-28T15:49:17.356Z,30.20
2018-08-28T15:51:45.751Z,29.47
2018-08-28T15:54:14.076Z,29.68
2018-08-28T15:56:42.585Z,32.39
2018-08-28T15:59:10.941Z,31.28
2018-08-28T16:01:39.292Z,32.27
2018-08-28T16:04:10.417Z,32.92
2018-08-28T16:06:38.800Z,32.84
2018-08-28T16:09:07.621Z,33.49
2018-08-28T16:11:35.987Z,33.84
2018-08-28T16:14:04.431Z,34.26
2018-08-28T16:16:32.777Z,32.76
2018-08-28T16:19:01.123Z,32.93
2018-08-28T16:21:33.905Z,33.11
2018-08-28T16:24:02.244Z,35.30
2018-08-28T16:26:30.608Z,33.77
2018-08-28T16:28:58.948Z,34.14
2018-08-28T16:31:27.633Z,35.03
2018-08-28T16:33:56.028Z,35.78
2018-08-28T16:36:24.331Z,35.24
2018-08-28T16:38:52.698Z,35.00
2018-08-28T16:41:21.049Z,35.62
2018-08-28T16:43:49.388Z,35.48
2018-08-28T16:46:17.741Z,35.76
2018-08-28T16:48:46.056Z,36.32
2018-08-28T16:51:14.423Z,36.20
2018-08-28T16:53:42.760Z,36.48
2018-08-28T16:56:11.115Z,36.76
2018-08-28T16:58:39.464Z,37.17
2018-08-28T17:01:07.902Z,37.33
2018-08-28T17:03:36.204Z,36.88
2018-08-28T17:06:04.677Z,37.03
2018-08-28T17:08:33.036Z,37.50
2018-08-28T17:11:01.396Z,37.38
2018-08-28T17:13:29.732Z,38.12
2018-08-28T17:15:58.102Z,38.55
2018-08-28T17:18:26.453Z,37.51
2018-08-28T17:20:54.839Z,39.20
2018-08-28T17:23:24.540Z,39.16
2018-08-28T17:25:52.900Z,39.49
2018-08-28T17:28:22.276Z,39.11
2018-08-28T17:30:50.703Z,39.52
2018-08-28T17:33:19.123Z,40.01
2018-08-28T17:35:47.598Z,40.21
2018-08-28T17:38:15.966Z,40.09
2018-08-28T17:40:44.352Z,39.97
2018-08-28T17:43:12.688Z,39.96
2018-08-28T17:45:41.149Z,40.99
2018-08-28T17:48:09.475Z,40.49
2018-08-28T17:50:37.809Z,41.09
2018-08-28T17:53:06.168Z,41.23
2018-08-28T17:55:34.512Z,41.90
2018-08-28T17:58:02.864Z,42.12
2018-08-28T18:00:31.217Z,42.46
2018-08-28T18:02:59.740Z,43.10
2018-08-28T18:05:28.080Z,43.73
2018-08-28T18:07:56.457Z,43.25
2018-08-28T18:10:24.792Z,43.73
2018-08-28T18:12:53.176Z,43.66
2018-08-28T18:15:21.516Z,44.03
2018-08-28T18:17:49.881Z,44.39
2018-08-28T18:20:18.246Z,44.55
2018-08-28T18:22:47.074Z,44.28
2018-08-28T18:25:15.451Z,44.61
2018-08-28T18:27:43.832Z,44.79
2018-08-28T18:30:12.168Z,45.44
2018-08-28T18:32:40.540Z,45.46
2018-08-28T18:35:09.212Z,45.76
2018-08-28T18:37:37.612Z,45.66
2018-08-28T18:40:05.984Z,45.44
2018-08-28T18:42:34.360Z,45.92
2018-08-28T18:45:02.710Z,46.94
2018-08-28T18:47:31.116Z,47.56
2018-08-28T18:49:59.612Z,47.62
2018-08-28T18:52:27.945Z,48.33
2018-08-28T18:54:56.308Z,48.00
2018-08-28T18:57:24.664Z,47.86
2018-08-28T18:59:53.012Z,47.77
2018-08-28T19:02:21.584Z,48.50
2018-08-28T19:04:49.940Z,48.38
2018-08-28T19:07:18.300Z,48.83
2018-08-28T19:09:46.629Z,47.93
2018-08-28T19:12:14.977Z,48.48
2018-08-28T19:14:43.467Z,47.61
2018-08-28T19:17:11.817Z,48.44
2018-08-28T19:19:40.157Z,48.14
2018-08-28T19:22:08.988Z,47.66
2018-08-28T19:24:37.600Z,48.54
2018-08-28T19:27:06.144Z,49.68
2018-08-28T19:29:34.470Z,51.54
2018-08-28T19:32:02.859Z,50.11
2018-08-28T19:34:31.510Z,49.65
2018-08-28T19:36:59.905Z,49.77
2018-08-28T19:39:28.280Z,49.48
2018-08-28T19:41:56.657Z,49.46
2018-08-28T19:44:25.018Z,50.25
2018-08-28T19:46:53.629Z,50.02
2018-08-28T19:49:22.540Z,50.05
2018-08-28T19:51:53.049Z,51.54
2018-08-28T19:54:21.381Z,52.76
2018-08-28T19:56:49.734Z,51.95
2018-08-28T19:59:18.084Z,52.32
2018-08-28T20:01:46.437Z,51.87
2018-08-28T20:04:14.793Z,51.55
2018-08-28T20:06:43.145Z,53.15
2018-08-28T20:09:11.496Z,54.17
2018-08-28T20:11:39.824Z,53.79
2018-08-28T20:14:08.209Z,51.30
2018-08-28T20:16:36.620Z,50.80
2018-08-28T20:19:05.155Z,51.61
2018-08-28T20:21:34.106Z,52.37
2018-08-28T20:24:02.949Z,51.33
2018-08-28T20:26:31.368Z,50.69
2018-08-28T20:28:59.778Z,51.55
2018-08-28T20:31:28.125Z,51.32
2018-08-28T20:33:56.503Z,51.52
2018-08-28T20:36:24.844Z,52.40
2018-08-28T20:38:53.209Z,50.62
2018-08-28T20:41:21.581Z,51.71
2018-08-28T20:43:49.932Z,53.61
2018-08-28T20:46:18.996Z,54.21
2018-08-28T20:48:47.356Z,53.49
2018-08-28T20:51:15.712Z,51.52
2018-08-28T20:53:44.128Z,53.09
2018-08-28T20:56:12.420Z,53.90
2018-08-28T20:58:40.812Z,56.01
2018-08-28T21:01:09.152Z,56.36
2018-08-28T21:03:37.960Z,56.97
2018-08-28T21:06:06.596Z,53.53
2018-08-28T21:08:34.964Z,52.97
2018-08-28T21:11:03.301Z,54.46
2018-08-28T21:13:31.644Z,57.50
2018-08-28T21:15:59.972Z,57.36
2018-08-28T21:18:28.356Z,58.15
2018-08-28T21:20:56.720Z,57.64
2018-08-28T21:23:25.060Z,57.51
2018-08-28T21:25:53.434Z,57.41
2018-08-28T21:28:21.804Z,57.64
2018-08-28T21:30:50.144Z,58.88
2018-08-28T21:33:18.589Z,58.89
2018-08-28T21:35:46.942Z,58.88
2018-08-28T21:38:15.284Z,59.56
2018-08-28T21:40:43.624Z,60.17
2018-08-28T21:43:11.996Z,59.78
2018-08-28T21:45:41.005Z,59.28
2018-08-28T21:48:09.370Z,58.65
2018-08-28T21:50:37.720Z,59.59
2018-08-28T21:53:06.522Z,59.10
2018-08-28T21:55:34.884Z,59.22
2018-08-28T21:58:03.272Z,58.59
2018-08-28T22:00:31.618Z,58.52
2018-08-28T22:02:59.972Z,59.74
2018-08-28T22:05:31.096Z,60.24
2018-08-28T22:08:02.086Z,59.42
2018-08-28T22:10:32.344Z,59.37
2018-08-28T22:13:00.698Z,58.63
2018-08-28T22:15:29.235Z,59.09
2018-08-28T22:17:57.575Z,59.55
2018-08-28T22:20:25.905Z,57.96
2018-08-28T22:22:55.024Z,58.04
2018-08-28T22:25:23.549Z,57.98
2018-08-28T22:27:51.836Z,57.14
2018-08-28T22:30:20.175Z,57.63
2018-08-28T22:32:48.497Z,56.66
2018-08-28T22:35:16.837Z,58.31
2018-08-28T22:37:45.124Z,58.69
2018-08-28T22:40:14.078Z,59.69
2018-08-28T22:42:42.552Z,59.94
2018-08-28T22:45:10.993Z,59.94
2018-08-28T22:47:39.304Z,60.16
2018-08-28T22:50:07.948Z,60.91
2018-08-28T22:52:36.260Z,59.77
2018-08-28T22:55:04.721Z,59.45
2018-08-28T22:57:33.015Z,60.38
2018-08-28T23:00:01.378Z,60.95
2018-08-28T23:02:29.681Z,60.61
2018-08-28T23:04:58.008Z,61.59
2018-08-28T23:07:26.596Z,61.83
2018-08-28T23:09:54.932Z,61.80
2018-08-28T23:12:23.272Z,62.72
2018-08-28T23:14:51.612Z,63.18
2018-08-28T23:17:19.917Z,63.79
2018-08-28T23:19:48.248Z,63.66
2018-08-28T23:22:16.543Z,63.63
2018-08-28T23:24:45.292Z,61.87
2018-08-28T23:27:13.624Z,61.20
2018-08-28T23:29:41.945Z,59.98
2018-08-28T23:32:10.241Z,60.60
2018-08-28T23:34:38.567Z,60.87
2018-08-28T23:37:07.252Z,58.49
2018-08-28T23:39:35.563Z,57.03
2018-08-28T23:42:03.872Z,56.29
2018-08-28T23:44:32.188Z,55.50
2018-08-28T23:47:00.484Z,56.21
2018-08-28T23:49:28.787Z,56.75
2018-08-28T23:51:57.119Z,56.06
2018-08-28T23:54:25.428Z,56.76
2018-08-28T23:56:53.724Z,56.36
2018-08-28T23:59:22.040Z,56.25
